Arklow Rogue — EIGD — position and weather

sailwx.info

Track history (hours):
 
Tides and Currents Weather Stations Pressure Air Temp Water Temp Dewpoint Dewpoint Depression Visibility Wind Speed Wind Dir Waves Ship Positions

Arklow Rogue

Last reported at 2016-Jul-27 08:31 UTC. Time now 2016-Jul-27 09:41 UTC.
Position N 36°38' W 008°07'.

Length 90 m; draft 3.4 m.

Type: Cargo ship. MMSI: 250000960.

Date/timePositionNaut miles runAvg speedWind from/ knotsBaromVisibWave heightAir tempDewpointWater temp
2016-Jul-27 08:31N 36°38' W 008°07'3510.9
2016-Jul-27 05:19N 36°33' W 008°50'1010.6
2016-Jul-27 04:23N 36°32' W 009°02'910.4
2016-Jul-27 03:33N 36°34' W 009°13'1010.5
2016-Jul-27 02:33N 36°40' W 009°23'1210.7
2016-Jul-27 01:24N 36°50' W 009°32'1011.3
2016-Jul-27 00:33N 36°59' W 009°35'1111.3
2016-Jul-26 23:33N 37°10' W 009°38'1110.9
2016-Jul-26 22:33N 37°21' W 009°41'1110.9
2016-Jul-26 21:33N 37°31' W 009°45'1111.3
2016-Jul-26 20:32N 37°43' W 009°48'1211.4
2016-Jul-26 19:31N 37°54' W 009°51'1111.3
2016-Jul-26 18:33N 38°05' W 009°54'1211.5
2016-Jul-26 17:33N 38°16' W 009°58'1211.8
2016-Jul-26 16:33N 38°27' W 010°01'1111.5
2016-Jul-26 15:33N 38°38' W 010°05'1111.5
2016-Jul-26 14:33N 38°50' W 010°06'1211.4
2016-Jul-26 13:28N 39°02' W 010°05'1111.8
2016-Jul-26 12:33N 39°13' W 010°06'1411.3
2016-Jul-26 11:21N 39°27' W 010°06'911.2
2016-Jul-26 10:33N 39°36' W 010°06'57811.1
2016-Jul-24 06:33N 48°44' W 005°54'9 9.4
2016-Jul-24 05:34N 48°52' W 005°47'10 9.7
2016-Jul-24 04:33N 48°58' W 005°35'1010.5
2016-Jul-24 03:33N 49°03' W 005°21'1211.8
2016-Jul-24 02:34N 49°09' W 005°05'1312.6
2016-Jul-24 01:33N 49°15' W 004°48'1312.8
2016-Jul-24 00:33N 49°22' W 004°32'1412.3
2016-Jul-23 23:26N 49°29' W 004°14'1011.2
2016-Jul-23 22:33N 49°34' W 004°00'21 9.7
2016-Jul-23 20:22N 49°45' W 003°32'8 9.6
2016-Jul-23 19:34N 49°49' W 003°22'1210.2
2016-Jul-23 18:21N 49°55' W 003°05'1111.8
2016-Jul-23 17:26N 49°59' W 002°50'1213.2
2016-Jul-23 16:33N 50°03' W 002°32'1514.3
2016-Jul-23 15:30N 50°08' W 002°10'2813.0
2016-Jul-23 13:23N 50°15' W 001°29'8 9.8
2016-Jul-23 12:33N 50°18' W 001°17'10 8.6
2016-Jul-23 11:25N 50°20' W 001°02'7 7.6
2016-Jul-23 10:26N 50°23' W 000°51'7 8.0
2016-Jul-23 09:31N 50°25' W 000°40'9 9.2
2016-Jul-23 08:33N 50°27' W 000°27'1110.9
2016-Jul-23 07:33N 50°30' W 000°10'1212.2
2016-Jul-23 06:33N 50°34' E 000°09'2512.5
2016-Jul-23 04:33N 50°44' E 000°45'1111.1
2016-Jul-23 03:33N 50°50' E 000°59'1110.1
2016-Jul-23 02:30N 50°57' E 001°12'8 8.6
2016-Jul-23 01:33N 51°02' E 001°22'9 8.9
2016-Jul-23 00:33N 51°07' E 001°33'1110.7
2016-Jul-22 23:33N 51°17' E 001°41'1313.3
2016-Jul-22 22:33N 51°30' E 001°44'1313.5
2016-Jul-22 21:33N 51°43' E 001°44'1312.8
2016-Jul-22 20:33N 51°56' E 001°44'1211.8
2016-Jul-22 19:33N 52°08' E 001°47'1110.7
2016-Jul-22 18:34N 52°18' E 001°50'10 9.9
2016-Jul-22 17:32N 52°28' E 001°53'8 8.7
2016-Jul-22 16:33N 52°37' E 001°55'8 7.9
2016-Jul-22 15:31N 52°45' E 001°54'8 8.7
2016-Jul-22 14:33N 52°50' E 001°43'9 8.9
2016-Jul-22 13:33N 52°55' E 001°31'9 9.1
2016-Jul-22 12:33N 52°59' E 001°17'1110.5
2016-Jul-22 11:33N 53°04' E 001°02'1111.1
2016-Jul-22 10:33N 53°12' E 000°48'8 8.1
2016-Jul-22 09:32N 53°09' E 000°35'1212.3
2016-Jul-22 08:32N 52°59' E 000°24'10 9.6
2016-Jul-22 07:32N 52°49' E 000°21'4 1.9
2016-Jul-22 05:33N 52°46' E 000°23'0 0.0
2016-Jul-22 04:18N 52°46' E 000°23'0 0.0
2016-Jul-22 03:33N 52°46' E 000°23'0 0.0
2016-Jul-22 02:27N 52°46' E 000°23'0 0.0
2016-Jul-22 01:33N 52°46' E 000°23'0 0.0
2016-Jul-22 00:33N 52°46' E 000°23'0 0.0
2016-Jul-21 23:30N 52°46' E 000°23'0 0.0
2016-Jul-21 22:33N 52°46' E 000°23'0 0.0
2016-Jul-21 21:33N 52°46' E 000°23'0 0.0
2016-Jul-21 20:33N 52°46' E 000°23'0 0.0
2016-Jul-21 19:33N 52°46' E 000°23'0 0.0
2016-Jul-21 18:33N 52°46' E 000°23'0 0.0
2016-Jul-21 17:33N 52°46' E 000°23'0 0.0
2016-Jul-21 16:33N 52°46' E 000°23'0 0.0
2016-Jul-21 15:30N 52°46' E 000°23'0 0.0
2016-Jul-21 14:33N 52°46' E 000°23'0 0.0
2016-Jul-21 13:33N 52°46' E 000°23'0 0.0
2016-Jul-21 12:33N 52°46' E 000°23'0 0.0
2016-Jul-21 11:30N 52°46' E 000°23'0 0.0
2016-Jul-21 10:28N 52°46' E 000°23'0 0.0
2016-Jul-21 09:33N 52°46' E 000°23'0 0.0
2016-Jul-21 08:30N 52°46' E 000°23'0 0.0
2016-Jul-21 07:33N 52°46' E 000°23'0 0.0
2016-Jul-21 06:30N 52°46' E 000°23'0 0.0
2016-Jul-21 05:33N 52°46' E 000°23'0 0.0
2016-Jul-21 04:33N 52°46' E 000°23'0 0.0
2016-Jul-21 03:24N 52°46' E 000°23'0 0.0
2016-Jul-21 02:33N 52°46' E 000°23'0 0.0
2016-Jul-21 01:33N 52°46' E 000°23'0 0.0
2016-Jul-21 00:30N 52°46' E 000°23'0 0.0
2016-Jul-20 23:33N 52°46' E 000°23'0 0.0
2016-Jul-20 22:27N 52°46' E 000°23'0 0.0
2016-Jul-20 21:30N 52°46' E 000°23'0 0.0
2016-Jul-20 20:33N 52°46' E 000°23'0 0.0
2016-Jul-20 19:33N 52°46' E 000°23'0 0.0
2016-Jul-20 18:33N 52°46' E 000°23'0 0.0
2016-Jul-20 17:33N 52°46' E 000°23'0 0.0
2016-Jul-20 16:33N 52°46' E 000°23'0 0.0
2016-Jul-20 15:33N 52°46' E 000°23'0 0.0
2016-Jul-20 14:33N 52°46' E 000°23'0 0.0
2016-Jul-20 13:33N 52°46' E 000°23'0 0.0
2016-Jul-20 12:33N 52°46' E 000°23'0 0.0
2016-Jul-20 11:30N 52°46' E 000°23'0 0.0
2016-Jul-20 10:33N 52°46' E 000°23'0 0.0
2016-Jul-20 09:33N 52°46' E 000°23'0 0.0
2016-Jul-20 08:33N 52°46' E 000°23'0 0.0
2016-Jul-20 07:33N 52°46' E 000°23'0 0.0
2016-Jul-20 06:33N 52°46' E 000°23'0 0.0
2016-Jul-20 05:30N 52°46' E 000°23'0 0.0
2016-Jul-20 04:30N 52°46' E 000°23'0 0.0
2016-Jul-20 03:33N 52°46' E 000°23'0 0.0
2016-Jul-20 02:27N 52°46' E 000°23'0 0.0
2016-Jul-20 01:33N 52°46' E 000°23'0 0.0
2016-Jul-20 00:33N 52°46' E 000°23'0 0.0
2016-Jul-19 23:33N 52°46' E 000°23'0 0.0
2016-Jul-19 22:24N 52°46' E 000°23'0 0.0
2016-Jul-19 21:30N 52°46' E 000°23'0 0.0
2016-Jul-19 20:30N 52°46' E 000°23'0 0.0
2016-Jul-19 19:33N 52°46' E 000°23'0 0.0
2016-Jul-19 18:30N 52°46' E 000°23'0 0.0
2016-Jul-19 17:30N 52°46' E 000°23'0 0.0
2016-Jul-19 16:33N 52°46' E 000°23'0 0.0
2016-Jul-19 15:33N 52°46' E 000°23'0 0.0
2016-Jul-19 14:33N 52°46' E 000°23'0 0.0
2016-Jul-19 13:30N 52°46' E 000°23'0 0.0
2016-Jul-19 12:21N 52°46' E 000°23'0 0.0
2016-Jul-19 11:33N 52°46' E 000°23'0 0.0
2016-Jul-19 10:30N 52°46' E 000°23'0 0.0
2016-Jul-19 09:33N 52°46' E 000°23'0 0.0
2016-Jul-19 08:33N 52°46' E 000°23'0 0.0
2016-Jul-19 07:33N 52°46' E 000°23'0 0.0
2016-Jul-19 04:30N 52°46' E 000°23'0 0.0
2016-Jul-19 03:33N 52°46' E 000°23'0 0.0
2016-Jul-19 02:33N 52°46' E 000°23'0 0.0
2016-Jul-19 01:33N 52°46' E 000°23'0 0.0
2016-Jul-19 00:30N 52°46' E 000°23'0 0.0
2016-Jul-18 23:33N 52°46' E 000°23'0 0.0
2016-Jul-18 22:33N 52°46' E 000°23'0 0.0
2016-Jul-18 21:31N 52°46' E 000°23'0 0.0
2016-Jul-18 20:33N 52°46' E 000°23'0 0.0
2016-Jul-18 19:33N 52°46' E 000°23'0 0.0
2016-Jul-18 18:33N 52°46' E 000°23'0 0.0
2016-Jul-18 17:33N 52°46' E 000°23'0 0.0
2016-Jul-18 16:33N 52°46' E 000°23'0 0.0
2016-Jul-18 15:30N 52°46' E 000°23'0 0.0
2016-Jul-18 14:33N 52°46' E 000°23'0 0.0
2016-Jul-18 13:33N 52°46' E 000°23'0 0.0
2016-Jul-18 12:33N 52°46' E 000°23'0 0.0
2016-Jul-18 11:33N 52°46' E 000°23'0 0.0
2016-Jul-18 10:33N 52°46' E 000°23'0 0.0
2016-Jul-18 09:33N 52°46' E 000°23'0 0.0
2016-Jul-18 08:33N 52°46' E 000°23'0 0.0
2016-Jul-18 07:33N 52°46' E 000°23'0 0.0
2016-Jul-18 06:33N 52°46' E 000°23'0 0.0
2016-Jul-18 05:33N 52°46' E 000°23'0 0.0
2016-Jul-18 04:33N 52°46' E 000°23'0 0.0
2016-Jul-18 03:33N 52°46' E 000°23'0 0.0
2016-Jul-18 02:33N 52°46' E 000°23'0 0.0
2016-Jul-18 01:33N 52°46' E 000°23'0 0.0
2016-Jul-18 00:33N 52°46' E 000°23'0 0.0
2016-Jul-17 23:33N 52°46' E 000°23'0 0.0
2016-Jul-17 22:33N 52°46' E 000°23'0 0.0
2016-Jul-17 21:33N 52°46' E 000°23'0 0.0
2016-Jul-17 20:33N 52°46' E 000°23'0 0.0
2016-Jul-17 19:30N 52°46' E 000°23'0 0.0
2016-Jul-17 18:33N 52°46' E 000°23'0 0.0
2016-Jul-17 17:33N 52°46' E 000°23'0 0.0
2016-Jul-17 16:30N 52°46' E 000°23'0 0.0
2016-Jul-17 15:30N 52°46' E 000°23'0 0.0
2016-Jul-17 14:33N 52°46' E 000°23'0 0.0
2016-Jul-17 13:33N 52°46' E 000°23'0 0.0
2016-Jul-17 12:33N 52°46' E 000°23'0 0.0
2016-Jul-17 11:33N 52°46' E 000°23'0 0.0
2016-Jul-17 10:33N 52°46' E 000°23'0 0.0
2016-Jul-17 09:33N 52°46' E 000°23'0 0.0
2016-Jul-17 08:33N 52°46' E 000°23'  
Track history (hours):
 
Tides and Currents Weather Stations Pressure Air Temp Water Temp Dewpoint Dewpoint Depression Visibility Wind Speed Wind Dir Waves Ship Positions

Arklow Rogue

Last reported at 2016-Jul-27 08:31 UTC. Time now 2016-Jul-27 09:41 UTC.
Position N 36°38' W 008°07'.

Length 90 m; draft 3.4 m.

Type: Cargo ship. MMSI: 250000960.

Date/timePositionNaut miles runAvg speedWind from/ knotsBaromVisibWave heightAir tempDewpointWater temp
2016-Jul-27 08:31N 36°38' W 008°07'3510.9
2016-Jul-27 05:19N 36°33' W 008°50'1010.6
2016-Jul-27 04:23N 36°32' W 009°02'910.4
2016-Jul-27 03:33N 36°34' W 009°13'1010.5
2016-Jul-27 02:33N 36°40' W 009°23'1210.7
2016-Jul-27 01:24N 36°50' W 009°32'1011.3
2016-Jul-27 00:33N 36°59' W 009°35'1111.3
2016-Jul-26 23:33N 37°10' W 009°38'1110.9
2016-Jul-26 22:33N 37°21' W 009°41'1110.9
2016-Jul-26 21:33N 37°31' W 009°45'1111.3
2016-Jul-26 20:32N 37°43' W 009°48'1211.4
2016-Jul-26 19:31N 37°54' W 009°51'1111.3
2016-Jul-26 18:33N 38°05' W 009°54'1211.5
2016-Jul-26 17:33N 38°16' W 009°58'1211.8
2016-Jul-26 16:33N 38°27' W 010°01'1111.5
2016-Jul-26 15:33N 38°38' W 010°05'1111.5
2016-Jul-26 14:33N 38°50' W 010°06'1211.4
2016-Jul-26 13:28N 39°02' W 010°05'1111.8
2016-Jul-26 12:33N 39°13' W 010°06'1411.3
2016-Jul-26 11:21N 39°27' W 010°06'911.2
2016-Jul-26 10:33N 39°36' W 010°06'57811.1
2016-Jul-24 06:33N 48°44' W 005°54'9 9.4
2016-Jul-24 05:34N 48°52' W 005°47'10 9.7
2016-Jul-24 04:33N 48°58' W 005°35'1010.5
2016-Jul-24 03:33N 49°03' W 005°21'1211.8
2016-Jul-24 02:34N 49°09' W 005°05'1312.6
2016-Jul-24 01:33N 49°15' W 004°48'1312.8
2016-Jul-24 00:33N 49°22' W 004°32'1412.3
2016-Jul-23 23:26N 49°29' W 004°14'1011.2
2016-Jul-23 22:33N 49°34' W 004°00'21 9.7
2016-Jul-23 20:22N 49°45' W 003°32'8 9.6
2016-Jul-23 19:34N 49°49' W 003°22'1210.2
2016-Jul-23 18:21N 49°55' W 003°05'1111.8
2016-Jul-23 17:26N 49°59' W 002°50'1213.2
2016-Jul-23 16:33N 50°03' W 002°32'1514.3
2016-Jul-23 15:30N 50°08' W 002°10'2813.0
2016-Jul-23 13:23N 50°15' W 001°29'8 9.8
2016-Jul-23 12:33N 50°18' W 001°17'10 8.6
2016-Jul-23 11:25N 50°20' W 001°02'7 7.6
2016-Jul-23 10:26N 50°23' W 000°51'7 8.0
2016-Jul-23 09:31N 50°25' W 000°40'9 9.2
2016-Jul-23 08:33N 50°27' W 000°27'1110.9
2016-Jul-23 07:33N 50°30' W 000°10'1212.2
2016-Jul-23 06:33N 50°34' E 000°09'2512.5
2016-Jul-23 04:33N 50°44' E 000°45'1111.1
2016-Jul-23 03:33N 50°50' E 000°59'1110.1
2016-Jul-23 02:30N 50°57' E 001°12'8 8.6
2016-Jul-23 01:33N 51°02' E 001°22'9 8.9
2016-Jul-23 00:33N 51°07' E 001°33'1110.7
2016-Jul-22 23:33N 51°17' E 001°41'1313.3
2016-Jul-22 22:33N 51°30' E 001°44'1313.5
2016-Jul-22 21:33N 51°43' E 001°44'1312.8
2016-Jul-22 20:33N 51°56' E 001°44'1211.8
2016-Jul-22 19:33N 52°08' E 001°47'1110.7
2016-Jul-22 18:34N 52°18' E 001°50'10 9.9
2016-Jul-22 17:32N 52°28' E 001°53'8 8.7
2016-Jul-22 16:33N 52°37' E 001°55'8 7.9
2016-Jul-22 15:31N 52°45' E 001°54'8 8.7
2016-Jul-22 14:33N 52°50' E 001°43'9 8.9
2016-Jul-22 13:33N 52°55' E 001°31'9 9.1
2016-Jul-22 12:33N 52°59' E 001°17'1110.5
2016-Jul-22 11:33N 53°04' E 001°02'1111.1
2016-Jul-22 10:33N 53°12' E 000°48'8 8.1
2016-Jul-22 09:32N 53°09' E 000°35'1212.3
2016-Jul-22 08:32N 52°59' E 000°24'10 9.6
2016-Jul-22 07:32N 52°49' E 000°21'4 1.9
2016-Jul-22 05:33N 52°46' E 000°23'0 0.0
2016-Jul-22 04:18N 52°46' E 000°23'0 0.0
2016-Jul-22 03:33N 52°46' E 000°23'0 0.0
2016-Jul-22 02:27N 52°46' E 000°23'0 0.0
2016-Jul-22 01:33N 52°46' E 000°23'0 0.0
2016-Jul-22 00:33N 52°46' E 000°23'0 0.0
2016-Jul-21 23:30N 52°46' E 000°23'0 0.0
2016-Jul-21 22:33N 52°46' E 000°23'0 0.0
2016-Jul-21 21:33N 52°46' E 000°23'0 0.0
2016-Jul-21 20:33N 52°46' E 000°23'0 0.0
2016-Jul-21 19:33N 52°46' E 000°23'0 0.0
2016-Jul-21 18:33N 52°46' E 000°23'0 0.0
2016-Jul-21 17:33N 52°46' E 000°23'0 0.0
2016-Jul-21 16:33N 52°46' E 000°23'0 0.0
2016-Jul-21 15:30N 52°46' E 000°23'0 0.0
2016-Jul-21 14:33N 52°46' E 000°23'0 0.0
2016-Jul-21 13:33N 52°46' E 000°23'0 0.0
2016-Jul-21 12:33N 52°46' E 000°23'0 0.0
2016-Jul-21 11:30N 52°46' E 000°23'0 0.0
2016-Jul-21 10:28N 52°46' E 000°23'0 0.0
2016-Jul-21 09:33N 52°46' E 000°23'0 0.0
2016-Jul-21 08:30N 52°46' E 000°23'0 0.0
2016-Jul-21 07:33N 52°46' E 000°23'0 0.0
2016-Jul-21 06:30N 52°46' E 000°23'0 0.0
2016-Jul-21 05:33N 52°46' E 000°23'0 0.0
2016-Jul-21 04:33N 52°46' E 000°23'0 0.0
2016-Jul-21 03:24N 52°46' E 000°23'0 0.0
2016-Jul-21 02:33N 52°46' E 000°23'0 0.0
2016-Jul-21 01:33N 52°46' E 000°23'0 0.0
2016-Jul-21 00:30N 52°46' E 000°23'0 0.0
2016-Jul-20 23:33N 52°46' E 000°23'0 0.0
2016-Jul-20 22:27N 52°46' E 000°23'0 0.0
2016-Jul-20 21:30N 52°46' E 000°23'0 0.0
2016-Jul-20 20:33N 52°46' E 000°23'0 0.0
2016-Jul-20 19:33N 52°46' E 000°23'0 0.0
2016-Jul-20 18:33N 52°46' E 000°23'0 0.0
2016-Jul-20 17:33N 52°46' E 000°23'0 0.0
2016-Jul-20 16:33N 52°46' E 000°23'0 0.0
2016-Jul-20 15:33N 52°46' E 000°23'0 0.0
2016-Jul-20 14:33N 52°46' E 000°23'0 0.0
2016-Jul-20 13:33N 52°46' E 000°23'0 0.0
2016-Jul-20 12:33N 52°46' E 000°23'0 0.0
2016-Jul-20 11:30N 52°46' E 000°23'0 0.0
2016-Jul-20 10:33N 52°46' E 000°23'0 0.0
2016-Jul-20 09:33N 52°46' E 000°23'0 0.0
2016-Jul-20 08:33N 52°46' E 000°23'0 0.0
2016-Jul-20 07:33N 52°46' E 000°23'0 0.0
2016-Jul-20 06:33N 52°46' E 000°23'0 0.0
2016-Jul-20 05:30N 52°46' E 000°23'0 0.0
2016-Jul-20 04:30N 52°46' E 000°23'0 0.0
2016-Jul-20 03:33N 52°46' E 000°23'0 0.0
2016-Jul-20 02:27N 52°46' E 000°23'0 0.0
2016-Jul-20 01:33N 52°46' E 000°23'0 0.0
2016-Jul-20 00:33N 52°46' E 000°23'0 0.0
2016-Jul-19 23:33N 52°46' E 000°23'0 0.0
2016-Jul-19 22:24N 52°46' E 000°23'0 0.0
2016-Jul-19 21:30N 52°46' E 000°23'0 0.0
2016-Jul-19 20:30N 52°46' E 000°23'0 0.0
2016-Jul-19 19:33N 52°46' E 000°23'0 0.0
2016-Jul-19 18:30N 52°46' E 000°23'0 0.0
2016-Jul-19 17:30N 52°46' E 000°23'0 0.0
2016-Jul-19 16:33N 52°46' E 000°23'0 0.0
2016-Jul-19 15:33N 52°46' E 000°23'0 0.0
2016-Jul-19 14:33N 52°46' E 000°23'0 0.0
2016-Jul-19 13:30N 52°46' E 000°23'0 0.0
2016-Jul-19 12:21N 52°46' E 000°23'0 0.0
2016-Jul-19 11:33N 52°46' E 000°23'0 0.0
2016-Jul-19 10:30N 52°46' E 000°23'0 0.0
2016-Jul-19 09:33N 52°46' E 000°23'0 0.0
2016-Jul-19 08:33N 52°46' E 000°23'0 0.0
2016-Jul-19 07:33N 52°46' E 000°23'0 0.0
2016-Jul-19 04:30N 52°46' E 000°23'0 0.0
2016-Jul-19 03:33N 52°46' E 000°23'0 0.0
2016-Jul-19 02:33N 52°46' E 000°23'0 0.0
2016-Jul-19 01:33N 52°46' E 000°23'0 0.0
2016-Jul-19 00:30N 52°46' E 000°23'0 0.0
2016-Jul-18 23:33N 52°46' E 000°23'0 0.0
2016-Jul-18 22:33N 52°46' E 000°23'0 0.0
2016-Jul-18 21:31N 52°46' E 000°23'0 0.0
2016-Jul-18 20:33N 52°46' E 000°23'0 0.0
2016-Jul-18 19:33N 52°46' E 000°23'0 0.0
2016-Jul-18 18:33N 52°46' E 000°23'0 0.0
2016-Jul-18 17:33N 52°46' E 000°23'0 0.0
2016-Jul-18 16:33N 52°46' E 000°23'0 0.0
2016-Jul-18 15:30N 52°46' E 000°23'0 0.0
2016-Jul-18 14:33N 52°46' E 000°23'0 0.0
2016-Jul-18 13:33N 52°46' E 000°23'0 0.0
2016-Jul-18 12:33N 52°46' E 000°23'0 0.0
2016-Jul-18 11:33N 52°46' E 000°23'0 0.0
2016-Jul-18 10:33N 52°46' E 000°23'0 0.0
2016-Jul-18 09:33N 52°46' E 000°23'0 0.0
2016-Jul-18 08:33N 52°46' E 000°23'0 0.0
2016-Jul-18 07:33N 52°46' E 000°23'0 0.0
2016-Jul-18 06:33N 52°46' E 000°23'0 0.0
2016-Jul-18 05:33N 52°46' E 000°23'0 0.0
2016-Jul-18 04:33N 52°46' E 000°23'0 0.0
2016-Jul-18 03:33N 52°46' E 000°23'0 0.0
2016-Jul-18 02:33N 52°46' E 000°23'0 0.0
2016-Jul-18 01:33N 52°46' E 000°23'0 0.0
2016-Jul-18 00:33N 52°46' E 000°23'0 0.0
2016-Jul-17 23:33N 52°46' E 000°23'0 0.0
2016-Jul-17 22:33N 52°46' E 000°23'0 0.0
2016-Jul-17 21:33N 52°46' E 000°23'0 0.0
2016-Jul-17 20:33N 52°46' E 000°23'0 0.0
2016-Jul-17 19:30N 52°46' E 000°23'0 0.0
2016-Jul-17 18:33N 52°46' E 000°23'0 0.0
2016-Jul-17 17:33N 52°46' E 000°23'0 0.0
2016-Jul-17 16:30N 52°46' E 000°23'0 0.0
2016-Jul-17 15:30N 52°46' E 000°23'0 0.0
2016-Jul-17 14:33N 52°46' E 000°23'0 0.0
2016-Jul-17 13:33N 52°46' E 000°23'0 0.0
2016-Jul-17 12:33N 52°46' E 000°23'0 0.0
2016-Jul-17 11:33N 52°46' E 000°23'0 0.0
2016-Jul-17 10:33N 52°46' E 000°23'0 0.0
2016-Jul-17 09:33N 52°46' E 000°23'0 0.0
2016-Jul-17 08:33N 52°46' E 000°23'  

Dump ship's entire track history